EGNT - Newcastle
Distance from station: E 5mi, 14km
Updated: 12/12/2017 3:50am
Clear
Clear
 Wind from WSW
Wind: WSW 3 mph , 6 km/h
Temperature: 34°F , 1°C
Dew Point: 28°F , -2°C
Humidity: 81%
Barometer: 29.62 inHg , 1003 hPa
Summary: Clear
Visibility: greater than 7 miles , 10 km
2017/12/12 11:50 EGNT 121150Z 24003KT CAVOK 01/M02 Q1003